createdAt,value
2022-08-19T00:00:13.326Z,4.28
2022-08-19T00:02:50.222Z,2.90
2022-08-19T00:05:22.766Z,2.85
2022-08-19T00:07:53.920Z,3.25
2022-08-19T00:10:24.721Z,1.73
2022-08-19T00:12:55.931Z,5.15
2022-08-19T00:15:27.301Z,3.03
2022-08-19T00:20:44.838Z,4.65
2022-08-19T00:23:15.499Z,4.25
2022-08-19T00:34:15.240Z,3.90
2022-08-19T00:36:46.441Z,2.75
2022-08-19T00:39:18.556Z,4.35
2022-08-19T00:41:52.168Z,5.32
2022-08-19T00:47:14.578Z,2.72
2022-08-19T00:49:55.571Z,3.60
2022-08-19T00:52:37.087Z,4.72
2022-08-19T00:55:13.383Z,6.30
2022-08-19T00:57:52.337Z,4.18
2022-08-19T01:00:24.917Z,5.50
2022-08-19T01:02:56.963Z,5.15
2022-08-19T01:18:25.189Z,6.47
2022-08-19T01:20:57.960Z,6.15
2022-08-19T01:26:31.646Z,6.30
2022-08-19T01:29:05.212Z,4.80
2022-08-19T01:31:35.783Z,4.72
2022-08-19T01:34:08.738Z,6.80
2022-08-19T01:36:44.843Z,6.90
2022-08-19T01:39:20.467Z,10.55
2022-08-19T01:44:39.441Z,12.10
2022-08-19T01:47:10.133Z,11.18
2022-08-19T01:49:41.122Z,16.58
2022-08-19T01:52:11.503Z,9.40
2022-08-19T01:54:41.902Z,11.57
2022-08-19T01:57:15.670Z,14.27
2022-08-19T01:59:48.956Z,12.70
2022-08-19T02:02:19.641Z,12.63
2022-08-19T02:04:50.398Z,10.40
2022-08-19T02:07:24.917Z,14.57
2022-08-19T02:09:55.698Z,9.80
2022-08-19T02:12:26.514Z,9.73
2022-08-19T02:14:56.966Z,8.98
2022-08-19T02:17:27.243Z,11.85
2022-08-19T02:19:57.790Z,14.60
2022-08-19T02:22:29.011Z,12.27
2022-08-19T02:25:00.058Z,11.77
2022-08-19T02:27:30.448Z,8.98
2022-08-19T02:30:01.665Z,10.60
2022-08-19T02:32:33.570Z,9.07
2022-08-19T02:35:16.099Z,11.20
2022-08-19T02:38:06.216Z,7.60
2022-08-19T02:43:24.888Z,7.40
2022-08-19T02:45:55.628Z,6.78
2022-08-19T02:48:28.835Z,7.60
2022-08-19T02:50:59.411Z,6.28
2022-08-19T02:53:32.423Z,8.00
2022-08-19T02:58:49.625Z,4.88
2022-08-19T03:01:31.650Z,4.25
2022-08-19T03:06:52.190Z,10.20
2022-08-19T03:09:23.918Z,12.60
2022-08-19T03:11:54.533Z,9.88
2022-08-19T03:14:26.150Z,11.93
2022-08-19T03:16:56.780Z,15.25
2022-08-19T03:19:27.561Z,10.50
2022-08-19T03:21:58.698Z,15.20
2022-08-19T03:24:29.195Z,10.55
2022-08-19T03:27:01.607Z,12.57
2022-08-19T03:29:34.708Z,16.20
2022-08-19T03:32:32.171Z,7.05
2022-08-19T03:35:03.630Z,10.57
2022-08-19T03:37:34.256Z,13.70
2022-08-19T03:40:06.746Z,9.70
2022-08-19T03:42:48.491Z,7.18
2022-08-19T03:45:20.397Z,7.68
2022-08-19T03:47:51.114Z,7.70
2022-08-19T03:50:22.421Z,8.55
2022-08-19T03:55:46.404Z,8.85
2022-08-19T03:58:16.976Z,9.68
2022-08-19T04:00:48.109Z,8.50
2022-08-19T04:03:18.952Z,13.07
2022-08-19T04:11:42.767Z,4.45
2022-08-19T04:14:19.941Z,4.28
2022-08-19T04:19:40.109Z,2.60
2022-08-19T04:24:56.236Z,7.80
2022-08-19T04:27:28.215Z,3.63
2022-08-19T04:29:58.941Z,4.57
2022-08-19T04:32:29.240Z,7.55
2022-08-19T04:37:45.718Z,4.93
2022-08-19T04:40:29.602Z,7.50
2022-08-19T04:42:59.915Z,7.68
2022-08-19T04:45:36.264Z,6.60
2022-08-19T04:48:26.601Z,5.10
2022-08-19T04:51:01.541Z,6.70
2022-08-19T04:53:37.683Z,4.03
2022-08-19T04:56:15.653Z,12.43
2022-08-19T04:58:48.448Z,4.25
2022-08-19T05:01:23.914Z,7.85
2022-08-19T05:03:55.055Z,8.20
2022-08-19T05:06:26.709Z,9.07
2022-08-19T05:11:43.570Z,6.97
2022-08-19T05:17:25.619Z,11.23
2022-08-19T05:20:03.735Z,8.57
2022-08-19T05:22:36.167Z,8.43
2022-08-19T05:25:15.111Z,7.30
2022-08-19T05:27:46.333Z,8.77
2022-08-19T05:33:04.667Z,8.82
2022-08-19T05:35:35.079Z,7.35
2022-08-19T05:38:05.860Z,8.85
2022-08-19T05:40:40.049Z,7.82
2022-08-19T05:48:44.175Z,9.00
2022-08-19T05:51:14.857Z,9.23
2022-08-19T05:56:35.368Z,6.43
2022-08-19T05:59:07.431Z,6.97
2022-08-19T06:01:38.405Z,6.47
2022-08-19T06:04:09.672Z,11.30
2022-08-19T06:06:40.301Z,8.20
2022-08-19T06:09:13.738Z,12.52
2022-08-19T06:17:24.229Z,6.78
2022-08-19T06:20:54.500Z,6.75
2022-08-19T06:23:24.327Z,8.33
2022-08-19T06:25:55.910Z,5.65
2022-08-19T06:28:26.401Z,6.68
2022-08-19T06:30:56.732Z,8.88
2022-08-19T06:33:27.480Z,5.05
2022-08-19T06:35:58.645Z,16.42
2022-08-19T06:38:29.091Z,4.60
2022-08-19T06:41:08.993Z,6.85
2022-08-19T06:43:41.247Z,6.50
2022-08-19T06:46:16.422Z,8.77
2022-08-19T06:51:35.774Z,7.53
2022-08-19T06:54:19.390Z,6.35
2022-08-19T06:56:50.746Z,6.93
2022-08-19T06:59:24.119Z,5.45
2022-08-19T07:07:29.294Z,6.20
2022-08-19T07:10:01.833Z,8.05
2022-08-19T07:12:38.207Z,5.90
2022-08-19T07:15:11.573Z,6.20
2022-08-19T07:17:43.326Z,8.02
2022-08-19T07:20:15.492Z,7.05
2022-08-19T07:22:49.163Z,5.80
2022-08-19T07:30:53.648Z,6.40
2022-08-19T07:33:24.192Z,7.40
2022-08-19T07:35:58.481Z,9.20
2022-08-19T07:38:29.429Z,7.68
2022-08-19T07:40:59.797Z,8.57
2022-08-19T07:43:35.056Z,8.40
2022-08-19T07:46:06.025Z,6.35
2022-08-19T07:48:36.817Z,5.57
2022-08-19T07:51:11.135Z,6.57
2022-08-19T07:56:33.192Z,9.60
2022-08-19T07:59:03.920Z,9.30
2022-08-19T08:01:34.408Z,5.63
2022-08-19T08:04:31.801Z,6.45
2022-08-19T08:07:21.842Z,8.40
2022-08-19T08:12:34.992Z,13.23
2022-08-19T08:15:14.756Z,9.15
2022-08-19T08:17:51.372Z,9.35
2022-08-19T08:20:23.141Z,10.05
2022-08-19T08:23:03.673Z,10.32
2022-08-19T08:28:21.935Z,8.60
2022-08-19T08:30:54.016Z,9.20
2022-08-19T08:33:33.866Z,13.32
2022-08-19T08:36:08.992Z,10.15
2022-08-19T08:38:43.098Z,9.60
2022-08-19T08:41:38.164Z,6.65
2022-08-19T08:44:09.156Z,7.60
2022-08-19T08:46:53.319Z,7.22
2022-08-19T08:49:37.215Z,8.18
2022-08-19T08:52:13.900Z,8.68
2022-08-19T08:54:55.168Z,6.85
2022-08-19T09:03:31.829Z,8.38
2022-08-19T09:06:20.233Z,7.10
2022-08-19T09:09:02.633Z,5.72
2022-08-19T09:12:00.363Z,14.13
2022-08-19T09:14:59.018Z,9.00
2022-08-19T09:17:36.547Z,11.27
2022-08-19T09:20:28.770Z,9.40
2022-08-19T09:22:59.243Z,7.75
2022-08-19T09:28:22.323Z,11.65
2022-08-19T09:30:56.034Z,10.52
2022-08-19T09:33:26.353Z,10.25
2022-08-19T09:36:09.646Z,10.13
2022-08-19T09:38:43.870Z,7.35
2022-08-19T09:41:17.874Z,9.85
2022-08-19T09:43:50.868Z,13.45
2022-08-19T09:46:25.063Z,15.77
2022-08-19T09:48:56.608Z,9.98
2022-08-19T09:51:32.114Z,14.52
2022-08-19T09:54:06.469Z,7.95
2022-08-19T09:56:37.305Z,9.95
2022-08-19T09:59:08.006Z,12.68
2022-08-19T10:09:57.550Z,10.95
2022-08-19T10:12:28.076Z,14.30
2022-08-19T10:14:58.836Z,7.60
2022-08-19T10:17:31.680Z,10.70
2022-08-19T10:20:06.025Z,11.07
2022-08-19T10:22:39.007Z,8.80
2022-08-19T10:28:00.826Z,11.35
2022-08-19T10:30:32.073Z,8.18
2022-08-19T10:33:06.558Z,19.98
2022-08-19T10:38:31.835Z,10.07
2022-08-19T10:41:16.035Z,5.55
2022-08-19T10:43:48.287Z,7.35
2022-08-19T10:49:07.557Z,3.20
2022-08-19T10:51:49.006Z,4.07
2022-08-19T10:54:24.316Z,3.72
2022-08-19T10:59:50.523Z,10.55
2022-08-19T11:02:20.849Z,11.15
2022-08-19T11:04:53.707Z,5.53
2022-08-19T11:10:13.209Z,10.65
2022-08-19T11:12:44.587Z,8.82
2022-08-19T11:15:17.625Z,9.45
2022-08-19T11:20:34.424Z,13.00
2022-08-19T11:25:52.955Z,10.48
2022-08-19T11:28:23.372Z,7.35
2022-08-19T11:30:53.779Z,11.05
2022-08-19T11:36:10.519Z,5.13
2022-08-19T11:38:45.530Z,5.57
2022-08-19T11:41:15.877Z,11.15
2022-08-19T11:43:46.355Z,8.23
2022-08-19T11:46:18.678Z,9.48
2022-08-19T11:48:49.146Z,13.25
2022-08-19T11:51:23.494Z,14.25
2022-08-19T11:53:54.681Z,10.32
2022-08-19T11:59:14.933Z,10.10
2022-08-19T12:01:46.583Z,11.30
2022-08-19T12:04:16.971Z,8.48
2022-08-19T12:06:49.087Z,6.55
2022-08-19T12:14:54.306Z,7.72
2022-08-19T12:17:24.961Z,7.43
2022-08-19T12:19:55.317Z,9.55
2022-08-19T12:22:25.816Z,11.02
2022-08-19T12:24:56.792Z,12.07
2022-08-19T12:27:32.279Z,14.88
2022-08-19T12:33:02.235Z,12.93
2022-08-19T12:35:33.520Z,9.63
2022-08-19T12:38:05.727Z,9.93
2022-08-19T12:40:36.031Z,10.93
2022-08-19T12:43:07.659Z,15.73
2022-08-19T12:48:33.748Z,13.18
2022-08-19T12:51:10.974Z,12.38
2022-08-19T12:53:41.757Z,11.43
2022-08-19T12:59:00.681Z,12.55
2022-08-19T13:01:33.358Z,14.70
2022-08-19T13:04:05.119Z,22.65
2022-08-19T13:06:35.464Z,23.42
2022-08-19T13:09:07.489Z,21.67
2022-08-19T13:11:38.230Z,25.83
2022-08-19T13:14:09.031Z,20.42
2022-08-19T13:16:40.925Z,20.15
2022-08-19T13:19:11.425Z,20.05
2022-08-19T13:21:42.064Z,14.90
2022-08-19T13:24:13.186Z,23.73
2022-08-19T13:29:46.267Z,15.55
2022-08-19T13:32:26.463Z,18.08
2022-08-19T13:34:56.952Z,20.80
2022-08-19T13:37:46.767Z,14.15
2022-08-19T13:40:22.924Z,17.50
2022-08-19T13:42:55.652Z,18.52
2022-08-19T13:45:28.569Z,17.48
2022-08-19T13:48:00.931Z,22.10
2022-08-19T13:50:34.677Z,23.08
2022-08-19T13:53:07.081Z,22.55
2022-08-19T13:55:38.732Z,19.58
2022-08-19T13:58:09.133Z,17.67
2022-08-19T14:00:44.250Z,17.88
2022-08-19T14:03:14.704Z,18.92
2022-08-19T14:08:33.690Z,16.58
2022-08-19T14:11:06.584Z,23.80
2022-08-19T14:13:37.889Z,28.55
2022-08-19T14:16:15.390Z,26.10
2022-08-19T14:18:46.014Z,23.95
2022-08-19T14:21:26.341Z,32.17
2022-08-19T14:23:57.292Z,21.98
2022-08-19T14:26:27.731Z,23.15
2022-08-19T14:29:00.508Z,19.02
2022-08-19T14:31:31.152Z,23.38
2022-08-19T14:34:03.014Z,24.10
2022-08-19T14:39:21.278Z,21.17
2022-08-19T14:41:52.302Z,15.40
2022-08-19T14:44:22.641Z,14.38
2022-08-19T14:46:53.010Z,11.65
2022-08-19T14:49:29.738Z,15.43
2022-08-19T14:52:07.568Z,13.82
2022-08-19T14:54:37.916Z,15.30
2022-08-19T14:57:08.369Z,11.38
2022-08-19T14:59:39.591Z,14.90
2022-08-19T15:02:34.148Z,14.23
2022-08-19T15:05:00.751Z,10.73
2022-08-19T15:07:32.278Z,14.15
2022-08-19T15:12:51.708Z,13.60
2022-08-19T15:18:08.906Z,10.13
2022-08-19T15:26:14.257Z,10.30
2022-08-19T15:28:47.183Z,15.60
2022-08-19T15:31:28.200Z,11.18
2022-08-19T15:36:46.220Z,12.88
2022-08-19T15:39:16.844Z,17.45
2022-08-19T15:41:47.997Z,12.70
2022-08-19T15:47:07.086Z,11.05
2022-08-19T15:49:38.135Z,12.07
2022-08-19T15:52:09.870Z,9.27
2022-08-19T15:54:45.827Z,17.63
2022-08-19T15:57:35.604Z,14.15
2022-08-19T16:03:13.764Z,13.77
2022-08-19T16:06:03.344Z,16.63
2022-08-19T16:08:33.724Z,12.93
2022-08-19T16:11:23.778Z,14.23
2022-08-19T16:13:56.856Z,10.75
2022-08-19T16:16:35.374Z,13.35
2022-08-19T16:21:57.439Z,19.05
2022-08-19T16:24:30.399Z,19.17
2022-08-19T16:27:01.136Z,22.10
2022-08-19T16:29:39.679Z,20.33
2022-08-19T16:32:16.713Z,22.52
2022-08-19T16:34:47.844Z,22.55
2022-08-19T16:37:19.164Z,20.55
2022-08-19T16:39:51.739Z,21.70
2022-08-19T16:42:24.798Z,18.55
2022-08-19T16:44:55.218Z,18.45
2022-08-19T16:50:11.820Z,18.48
2022-08-19T16:52:42.443Z,21.75
2022-08-19T16:55:13.098Z,14.98
2022-08-19T17:00:29.436Z,18.80
2022-08-19T17:05:50.196Z,15.80
2022-08-19T17:08:23.171Z,20.17
2022-08-19T17:11:17.282Z,18.23
2022-08-19T17:13:44.178Z,19.45
2022-08-19T17:16:14.581Z,16.27
2022-08-19T17:18:44.906Z,17.25
2022-08-19T17:21:15.685Z,20.67
2022-08-19T17:29:20.640Z,22.10
2022-08-19T17:31:51.034Z,23.77
2022-08-19T17:34:21.413Z,21.20
2022-08-19T17:36:51.751Z,18.65
2022-08-19T17:39:22.069Z,19.02
2022-08-19T17:41:52.474Z,22.05
2022-08-19T17:44:22.825Z,19.40
2022-08-19T17:46:55.644Z,18.13
2022-08-19T17:49:25.903Z,18.73
2022-08-19T17:51:56.165Z,17.98
2022-08-19T17:54:33.210Z,21.17
2022-08-19T17:57:04.461Z,17.63
2022-08-19T17:59:34.823Z,12.35
2022-08-19T18:02:10.136Z,9.70
2022-08-19T18:04:45.457Z,13.73
2022-08-19T18:07:23.534Z,11.82
2022-08-19T18:12:41.944Z,9.68
2022-08-19T18:15:13.445Z,15.05
2022-08-19T18:17:43.872Z,9.38
2022-08-19T18:20:16.664Z,10.38
2022-08-19T18:25:36.939Z,10.45
2022-08-19T18:33:44.336Z,6.72
2022-08-19T18:36:15.538Z,8.15
2022-08-19T18:39:02.870Z,11.63
2022-08-19T18:41:50.239Z,13.02
2022-08-19T18:44:30.506Z,7.55
2022-08-19T18:47:10.907Z,7.15
2022-08-19T18:49:41.615Z,9.15
2022-08-19T18:52:12.084Z,9.43
2022-08-19T18:54:42.701Z,8.95
2022-08-19T18:59:58.823Z,8.10
2022-08-19T19:02:30.715Z,11.93
2022-08-19T19:07:46.833Z,9.40
2022-08-19T19:10:17.442Z,12.13
2022-08-19T19:12:48.123Z,10.65
2022-08-19T19:15:18.517Z,6.15
2022-08-19T19:17:49.728Z,6.13
2022-08-19T19:20:20.641Z,7.47
2022-08-19T19:22:51.019Z,9.48
2022-08-19T19:25:26.356Z,7.68
2022-08-19T19:28:16.829Z,7.88
2022-08-19T19:30:47.193Z,9.10
2022-08-19T19:33:17.586Z,8.63
2022-08-19T19:35:48.641Z,11.93
2022-08-19T19:38:19.107Z,8.10
2022-08-19T19:40:50.332Z,5.32
2022-08-19T19:43:21.221Z,7.40
2022-08-19T19:45:51.555Z,6.13
2022-08-19T19:48:21.866Z,8.20
2022-08-19T19:50:55.869Z,6.65
2022-08-19T19:53:29.995Z,4.63
2022-08-19T19:56:00.811Z,5.85
2022-08-19T20:01:21.646Z,5.72
2022-08-19T20:03:55.486Z,8.55
2022-08-19T20:06:25.927Z,11.38
2022-08-19T20:09:09.973Z,9.15
2022-08-19T20:11:46.145Z,8.20
2022-08-19T20:14:21.374Z,5.20
2022-08-19T20:16:53.366Z,5.65
2022-08-19T20:22:16.002Z,6.53
2022-08-19T20:27:38.447Z,8.10
2022-08-19T20:30:19.296Z,7.32
2022-08-19T20:32:51.573Z,9.75
2022-08-19T20:35:24.080Z,7.82
2022-08-19T20:37:58.399Z,5.60
2022-08-19T20:40:30.045Z,11.93
2022-08-19T20:43:00.396Z,6.40
2022-08-19T20:45:32.216Z,6.93
2022-08-19T20:48:04.759Z,8.00
2022-08-19T20:50:37.349Z,17.95
2022-08-19T20:53:20.834Z,8.50
2022-08-19T20:55:52.583Z,8.38
2022-08-19T20:58:24.336Z,10.00
2022-08-19T21:00:59.337Z,6.72
2022-08-19T21:06:18.434Z,8.95
2022-08-19T21:08:53.409Z,9.73
2022-08-19T21:11:24.791Z,7.32
2022-08-19T21:13:55.160Z,9.63
2022-08-19T21:16:25.627Z,7.28
2022-08-19T21:21:41.699Z,9.32
2022-08-19T21:24:12.144Z,8.80
2022-08-19T21:26:42.803Z,7.57
2022-08-19T21:29:13.187Z,9.45
2022-08-19T21:31:43.936Z,8.30
2022-08-19T21:34:14.397Z,8.75
2022-08-19T21:36:44.783Z,11.13
2022-08-19T21:44:47.415Z,9.40
2022-08-19T21:55:38.735Z,4.95
2022-08-19T21:58:09.131Z,6.55
2022-08-19T22:00:40.229Z,12.95
2022-08-19T22:03:10.937Z,12.65
2022-08-19T22:08:28.494Z,7.00
2022-08-19T22:11:01.162Z,7.65
2022-08-19T22:13:35.915Z,8.57
2022-08-19T22:16:10.582Z,8.95
2022-08-19T22:18:41.419Z,4.30
2022-08-19T22:21:12.388Z,4.90
2022-08-19T22:23:44.731Z,6.63
2022-08-19T22:31:51.036Z,7.55
2022-08-19T22:34:25.794Z,5.60
2022-08-19T22:36:56.223Z,12.20
2022-08-19T22:39:26.646Z,11.48
2022-08-19T22:41:57.244Z,7.25
2022-08-19T22:44:28.330Z,6.68
2022-08-19T22:46:58.736Z,9.60
2022-08-19T22:55:08.664Z,9.18
2022-08-19T22:57:39.354Z,6.45
2022-08-19T23:00:14.800Z,4.47
2022-08-19T23:02:51.414Z,10.55
2022-08-19T23:08:11.870Z,7.63
2022-08-19T23:10:42.318Z,9.10
2022-08-19T23:13:12.896Z,8.73
2022-08-19T23:15:43.200Z,7.80
2022-08-19T23:18:14.009Z,9.35
2022-08-19T23:20:46.839Z,11.80
2022-08-19T23:23:21.332Z,9.45
2022-08-19T23:25:52.258Z,10.68
2022-08-19T23:28:41.619Z,12.32
2022-08-19T23:31:13.527Z,6.10
2022-08-19T23:33:51.492Z,9.20
2022-08-19T23:36:23.424Z,11.55
2022-08-19T23:38:55.420Z,7.70
2022-08-19T23:41:26.212Z,6.75
2022-08-19T23:43:57.119Z,8.07
2022-08-19T23:46:30.744Z,11.77
2022-08-19T23:51:52.590Z,18.63
2022-08-19T23:54:23.154Z,11.82
2022-08-19T23:57:04.615Z,8.63
